Time;durP1;ratioP1;P1;durP2;ratioP2;P2;SDS_P1;SDS_P2;PMS_P1;PMS_P2;Temp;Humidity;BMP_temperature;BMP_pressure;BME280_temperature;BME280_humidity;BME280_pressure;Samples;Min_cycle;Max_cycle;Signal;HPM_P1;HPM_P2
2023/10/08 00:01:02;;;;;;;;;;;;;;;16.06;82.97;102226.97;5050828;28;19920;-67
2023/10/08 00:03:29;;;;;;;;;;;;;;;16.05;82.97;102231.41;5062791;28;20343;-66
2023/10/08 00:05:55;;;;;;;;;;;;;;;16.04;82.93;102229.66;5061883;28;19990;-66
2023/10/08 00:08:21;;;;;;;;;;;;;;;16.03;82.84;102227.03;5068529;28;19916;-66
2023/10/08 00:10:47;;;;;;;;;;;;;;;16.03;82.74;102227.03;5047206;28;19929;-66
2023/10/08 00:13:15;;;;;;;;;;;;;;;16.01;82.98;102219.13;5066907;28;20288;-66
2023/10/08 00:15:53;;;;;;;;;;;;;;;15.99;82.87;102227.97;5069931;28;20356;-66
2023/10/08 00:18:19;;;;;;;;;;;;;;;15.94;82.80;102228.88;5051722;28;19963;-66
2023/10/08 00:23:30;;;;;;;;;;;;;;;15.90;83.15;102227.19;5068116;28;20430;-66
2023/10/08 00:25:55;;;;;;;;;;;;;;;15.88;83.16;102238.69;5069872;28;19960;-66
2023/10/08 00:28:21;;;;;;;;;;;;;;;15.84;83.14;102243.09;5049207;28;20363;-66
2023/10/08 00:30:47;;;;;;;;;;;;;;;15.81;83.03;102240.50;5072685;28;20018;-66
2023/10/08 00:33:13;;;;;;;;;;;;;;;15.81;82.99;102237.84;5050049;28;19959;-66
2023/10/08 00:35:39;;;;;;;;;;;;;;;15.78;83.30;102235.22;5068930;28;19959;-66
2023/10/08 00:38:05;;;;;;;;;;;;;;;15.75;83.23;102240.53;5073544;28;19922;-67
2023/10/08 00:40:38;;;;;;;;;;;;;;;15.69;83.50;102238.84;5055218;28;19921;-66
2023/10/08 00:43:10;;;;;;;;;;;;;;;15.64;83.47;102234.50;5057274;28;20007;-66
2023/10/08 00:45:43;;;;;;;;;;;;;;;15.59;83.67;102240.69;5074784;28;19920;-66
2023/10/08 00:48:21;;;;;;;;;;;;;;;15.54;83.74;102241.63;5057617;28;20027;-67
2023/10/08 00:50:47;;;;;;;;;;;;;;;15.50;83.45;102229.34;5057149;28;19928;-66
2023/10/08 00:53:21;;;;;;;;;;;;;;;15.43;83.68;102236.47;5055436;28;19930;-67
2023/10/08 00:55:53;;;;;;;;;;;;;;;15.39;84.03;102254.09;5057565;28;19929;-66
2023/10/08 00:58:23;;;;;;;;;;;;;;;15.35;83.91;102251.50;5067486;28;19917;-67
2023/10/08 01:00:52;;;;;;;;;;;;;;;15.30;83.86;102233.09;5078502;28;19962;-66
2023/10/08 01:03:19;;;;;;;;;;;;;;;15.24;84.42;102233.13;5070896;28;20007;-66
2023/10/08 01:05:48;;;;;;;;;;;;;;;15.20;84.30;102241.94;5071713;28;19913;-66
2023/10/08 01:08:22;;;;;;;;;;;;;;;15.16;84.09;102242.88;5071852;28;19999;-66
2023/10/08 01:10:48;;;;;;;;;;;;;;;15.11;84.11;102240.25;5069665;28;19931;-66
2023/10/08 01:13:19;;;;;;;;;;;;;;;15.08;84.09;102221.81;5051993;28;20019;-66
2023/10/08 01:15:45;;;;;;;;;;;;;;;15.04;84.36;102230.63;5070439;28;20016;-66
2023/10/08 01:18:30;;;;;;;;;;;;;;;14.98;84.53;102228.94;5051636;28;20015;-66
2023/10/08 01:20:56;;;;;;;;;;;;;;;14.95;84.66;102234.22;5064884;28;19958;-66
2023/10/08 01:23:22;;;;;;;;;;;;;;;14.93;84.57;102229.84;5041904;28;19925;-66
2023/10/08 01:25:52;;;;;;;;;;;;;;;14.89;84.71;102215.81;5073986;28;19946;-66
2023/10/08 01:28:25;;;;;;;;;;;;;;;14.86;84.61;102213.22;5070595;28;19960;-66
2023/10/08 01:30:53;;;;;;;;;;;;;;;14.82;85.31;102212.34;5057979;28;19946;-66
2023/10/08 01:33:20;;;;;;;;;;;;;;;14.79;84.96;102207.09;5053695;28;20007;-66
2023/10/08 01:35:50;;;;;;;;;;;;;;;14.76;85.25;102201.84;5070158;28;19920;-66
2023/10/08 01:38:23;;;;;;;;;;;;;;;14.75;85.28;102199.22;5055591;28;20384;-66
2023/10/08 01:40:50;;;;;;;;;;;;;;;14.71;85.30;102203.63;5057336;28;19920;-66
2023/10/08 01:43:17;;;;;;;;;;;;;;;14.69;84.95;102206.28;5050138;28;19920;-66
2023/10/08 01:45:43;;;;;;;;;;;;;;;14.67;85.61;102201.91;5072699;28;19916;-66
2023/10/08 01:48:11;;;;;;;;;;;;;;;14.64;85.71;102205.44;5040920;28;19928;-66
2023/10/08 01:50:37;;;;;;;;;;;;;;;14.63;85.49;102210.75;5068370;28;19924;-66
2023/10/08 01:53:05;;;;;;;;;;;;;;;14.61;85.37;102223.91;5071348;28;20284;-64
2023/10/08 01:55:33;;;;;;;;;;;;;;;14.61;85.68;102209.81;5066882;28;19962;-64
2023/10/08 01:57:59;;;;;;;;;;;;;;;14.58;85.79;102228.31;5066445;28;19917;-64
2023/10/08 02:00:26;;;;;;;;;;;;;;;14.56;85.94;102234.47;5045939;28;19928;-64
2023/10/08 02:02:53;;;;;;;;;;;;;;;14.55;86.06;102240.66;5049167;28;19928;-66
2023/10/08 02:05:19;;;;;;;;;;;;;;;14.54;85.73;102244.16;5067929;28;19936;-66
2023/10/08 02:07:48;;;;;;;;;;;;;;;14.52;86.20;102235.41;5068470;28;19917;-66
2023/10/08 02:10:16;;;;;;;;;;;;;;;14.51;86.28;102238.91;5064001;28;19962;-67
2023/10/08 02:12:41;;;;;;;;;;;;;;;14.51;86.10;102248.56;5051870;28;20372;-67
2023/10/08 02:15:07;;;;;;;;;;;;;;;14.50;86.38;102239.78;5052907;28;19940;-66
2023/10/08 02:17:33;;;;;;;;;;;;;;;14.50;85.92;102237.16;5071330;28;19916;-66
2023/10/08 02:19:58;;;;;;;;;;;;;;;14.49;86.24;102229.25;5069534;28;19925;-66
2023/10/08 02:22:26;;;;;;;;;;;;;;;14.47;86.01;102231.91;5054257;28;19925;-66
2023/10/08 02:24:54;;;;;;;;;;;;;;;14.46;86.35;102235.41;5070512;28;19924;-66
2023/10/08 02:27:20;;;;;;;;;;;;;;;14.44;86.57;102234.56;5064451;28;20372;-64
2023/10/08 02:29:45;;;;;;;;;;;;;;;14.43;86.83;102229.28;5054508;28;19932;-66
2023/10/08 02:32:10;;;;;;;;;;;;;;;14.41;86.53;102229.31;5051087;28;19920;-64
2023/10/08 02:34:36;;;;;;;;;;;;;;;14.41;86.70;102245.13;5069013;28;19920;-65
2023/10/08 02:37:03;;;;;;;;;;;;;;;14.41;86.54;102237.22;5052551;28;20248;-64
2023/10/08 02:39:30;;;;;;;;;;;;;;;14.41;86.67;102237.22;5072244;28;20284;-66
2023/10/08 02:41:59;;;;;;;;;;;;;;;14.41;87.32;102250.41;5072192;28;19916;-64
2023/10/08 02:44:25;;;;;;;;;;;;;;;14.41;87.41;102253.03;5072363;28;20039;-65
2023/10/08 02:46:51;;;;;;;;;;;;;;;14.40;87.23;102261.81;5054487;28;19920;-64
2023/10/08 02:49:22;;;;;;;;;;;;;;;14.39;87.51;102262.69;5055259;28;19939;-64
2023/10/08 02:51:50;;;;;;;;;;;;;;;14.39;87.27;102265.34;5071819;28;20015;-64
2023/10/08 02:54:20;;;;;;;;;;;;;;;14.39;87.22;102278.53;5070072;28;19935;-64
2023/10/08 02:56:46;;;;;;;;;;;;;;;14.38;87.45;102274.16;5071497;28;20046;-64
2023/10/08 02:59:12;;;;;;;;;;;;;;;14.37;87.98;102285.56;5071341;28;19960;-65
2023/10/08 03:01:39;;;;;;;;;;;;;;;14.33;87.52;102270.66;5059234;28;20397;-64
2023/10/08 03:04:14;;;;;;;;;;;;;;;14.32;87.58;102274.16;5055208;28;20379;-64
2023/10/08 03:06:40;;;;;;;;;;;;;;;14.29;87.74;102261.00;5071630;28;19948;-64
2023/10/08 03:09:07;;;;;;;;;;;;;;;14.26;87.87;102258.38;5072206;28;19920;-66
2023/10/08 03:11:33;;;;;;;;;;;;;;;14.20;87.93;102257.50;5069149;28;20407;-64
2023/10/08 03:13:58;;;;;;;;;;;;;;;14.18;87.58;102255.78;5069290;28;19916;-64
2023/10/08 03:16:33;;;;;;;;;;;;;;;14.18;87.88;102264.56;5046747;28;19921;-64
2023/10/08 03:18:59;;;;;;;;;;;;;;;14.16;88.17;102268.94;5069413;28;20265;-64
2023/10/08 03:24:06;;;;;;;;;;;;;;;14.15;88.09;102272.50;5070630;28;19948;-64
2023/10/08 03:26:33;;;;;;;;;;;;;;;14.15;88.06;102271.59;5071975;28;20279;-65
2023/10/08 03:29:09;;;;;;;;;;;;;;;14.14;88.51;102275.13;5053874;28;19928;-66
2023/10/08 03:34:13;;;;;;;;;;;;;;;14.14;88.68;102285.69;5075134;28;20283;-64
2023/10/08 03:36:44;;;;;;;;;;;;;;;14.12;88.58;102269.88;5073123;28;19920;-64
2023/10/08 03:39:13;;;;;;;;;;;;;;;14.11;88.03;102262.84;5056964;28;19920;-64
2023/10/08 03:41:39;;;;;;;;;;;;;;;14.10;88.66;102268.13;5074718;28;19920;-64
2023/10/08 03:44:06;;;;;;;;;;;;;;;14.08;88.77;102277.75;5067853;28;19974;-64
2023/10/08 03:46:42;;;;;;;;;;;;;;;14.07;88.97;102290.09;5072427;28;20340;-66
2023/10/08 03:49:14;;;;;;;;;;;;;;;14.08;89.12;102289.22;5050716;28;19928;-66
2023/10/08 03:51:40;;;;;;;;;;;;;;;14.09;88.60;102272.50;5071755;28;19920;-66
2023/10/08 03:56:45;;;;;;;;;;;;;;;14.06;88.99;102288.31;5081739;28;20343;-66
2023/10/08 03:59:14;;;;;;;;;;;;;;;14.07;89.13;102299.75;5069557;28;20022;-66
2023/10/08 04:01:40;;;;;;;;;;;;;;;14.08;89.18;102288.31;5060238;28;19931;-66
2023/10/08 04:04:06;;;;;;;;;;;;;;;14.08;88.81;102270.75;5071910;28;19962;-66
2023/10/08 04:06:47;;;;;;;;;;;;;;;14.05;90.27;102268.13;5054313;28;19925;-67
2023/10/08 04:09:34;;;;;;;;;;;;;;;14.02;89.06;102279.56;5053958;28;19924;-67
2023/10/08 04:12:08;;;;;;;;;;;;;;;14.00;89.01;102278.66;5082284;28;19924;-66
2023/10/08 04:14:34;;;;;;;;;;;;;;;13.97;89.19;102291.84;5069283;28;19920;-66
2023/10/08 04:16:59;;;;;;;;;;;;;;;13.97;89.68;102291.00;5057091;28;19933;-66
2023/10/08 04:19:27;;;;;;;;;;;;;;;13.97;89.29;102294.50;5055586;28;20426;-66
2023/10/08 04:21:53;;;;;;;;;;;;;;;13.95;89.19;102290.09;5055166;28;19923;-66
2023/10/08 04:24:20;;;;;;;;;;;;;;;13.94;89.70;102286.59;5053668;28;20375;-66
2023/10/08 04:26:46;;;;;;;;;;;;;;;13.94;89.93;102302.41;5069850;28;20007;-66
2023/10/08 04:29:16;;;;;;;;;;;;;;;13.93;90.22;102313.81;5054094;28;20018;-64
2023/10/08 04:31:46;;;;;;;;;;;;;;;13.91;90.43;102305.06;5056827;28;20374;-64
2023/10/08 04:34:22;;;;;;;;;;;;;;;13.91;90.20;102298.94;5073327;28;19916;-64
2023/10/08 04:36:54;;;;;;;;;;;;;;;13.90;90.44;102305.06;5073460;28;19926;-66
2023/10/08 04:39:32;;;;;;;;;;;;;;;13.90;90.49;102315.59;5049647;28;19998;-66
2023/10/08 04:42:13;;;;;;;;;;;;;;;13.90;90.33;102320.88;5078641;28;19920;-66
2023/10/08 04:44:39;;;;;;;;;;;;;;;13.90;90.53;102334.06;5073307;28;20379;-66
2023/10/08 04:47:04;;;;;;;;;;;;;;;13.89;90.82;102343.69;5070610;28;19953;-66
2023/10/08 04:49:32;;;;;;;;;;;;;;;13.88;90.84;102343.69;5054023;28;20023;-66
2023/10/08 04:52:00;;;;;;;;;;;;;;;13.87;90.71;102340.19;5072706;28;19916;-64
2023/10/08 04:54:29;;;;;;;;;;;;;;;13.88;91.15;102341.06;5051299;28;19927;-64
2023/10/08 04:56:57;;;;;;;;;;;;;;;13.86;91.02;102341.97;5069160;28;20010;-64
2023/10/08 04:59:23;;;;;;;;;;;;;;;13.86;90.59;102336.69;5054297;28;19916;-66
2023/10/08 05:02:02;;;;;;;;;;;;;;;13.84;90.91;102338.44;5055350;28;19921;-64
2023/10/08 05:04:32;;;;;;;;;;;;;;;13.84;90.71;102332.31;5069870;28;19923;-64
2023/10/08 05:07:04;;;;;;;;;;;;;;;13.81;91.23;102341.09;5062590;28;19916;-64
2023/10/08 05:12:50;;;;;;;;;;;;;;;13.79;91.47;102353.41;5071717;28;19928;-66
2023/10/08 05:20:19;;;;;;;;;;;;;;;13.72;91.76;102349.00;5074137;28;19961;-66
2023/10/08 05:22:55;;;;;;;;;;;;;;;13.69;91.92;102348.97;5073016;28;19990;-66
2023/10/08 05:30:16;;;;;;;;;;;;;;;13.58;91.04;102349.00;5073432;28;19924;-66
2023/10/08 05:33:05;;;;;;;;;;;;;;;13.56;91.00;102350.78;5046550;28;19924;-67
2023/10/08 05:35:54;;;;;;;;;;;;;;;13.52;91.31;102343.75;5070169;28;19923;-66
2023/10/08 05:38:23;;;;;;;;;;;;;;;13.47;91.42;102340.22;5069463;28;19920;-66
2023/10/08 05:59:39;;;;;;;;;;;;;;;13.36;93.33;102332.34;5072145;28;19982;-66
2023/10/08 06:15:48;;;;;;;;;;;;;;;13.44;93.04;102356.03;5070847;28;19923;-64
2023/10/08 06:18:14;;;;;;;;;;;;;;;13.46;92.87;102364.78;5068321;28;19952;-64
2023/10/08 06:20:43;;;;;;;;;;;;;;;13.47;92.51;102359.53;5072517;28;20333;-64
2023/10/08 06:23:20;;;;;;;;;;;;;;;13.50;92.98;102378.00;5055408;28;19924;-64
2023/10/08 06:28:36;;;;;;;;;;;;;;;13.55;93.47;102363.91;5085683;28;20050;-64
2023/10/08 06:31:06;;;;;;;;;;;;;;;13.58;93.31;102356.03;5074805;28;19920;-65
2023/10/08 06:33:33;;;;;;;;;;;;;;;13.58;93.48;102358.69;5055121;28;19923;-64
2023/10/08 06:36:02;;;;;;;;;;;;;;;13.62;92.61;102360.41;5052922;28;19939;-64
2023/10/08 06:38:31;;;;;;;;;;;;;;;13.64;92.90;102362.16;5074569;28;19924;-64
2023/10/08 06:40:59;;;;;;;;;;;;;;;13.69;92.27;102359.53;5075694;28;19938;-64
2023/10/08 06:43:26;;;;;;;;;;;;;;;13.74;92.03;102356.91;5059779;28;20448;-66
2023/10/08 06:45:57;;;;;;;;;;;;;;;13.80;92.94;102363.03;5061019;28;20323;-66
2023/10/08 06:48:23;;;;;;;;;;;;;;;13.89;92.75;102369.19;5068098;28;20010;-66
2023/10/08 06:50:49;;;;;;;;;;;;;;;13.98;93.21;102379.72;5074982;28;20007;-66
2023/10/08 06:53:18;;;;;;;;;;;;;;;14.07;92.86;102390.25;5075126;28;20026;-66
2023/10/08 06:55:44;;;;;;;;;;;;;;;14.13;92.86;102406.03;5058418;28;19916;-66
2023/10/08 06:58:11;;;;;;;;;;;;;;;14.17;92.35;102407.78;5073790;28;20271;-66
2023/10/08 07:00:55;;;;;;;;;;;;;;;14.21;91.08;102414.81;5072219;28;20076;-66
2023/10/08 07:03:20;;;;;;;;;;;;;;;14.24;91.66;102416.59;5075429;28;19924;-66
2023/10/08 07:05:59;;;;;;;;;;;;;;;14.27;90.75;102424.47;5057969;28;19934;-66
2023/10/08 07:08:26;;;;;;;;;;;;;;;14.28;91.36;102414.81;5069002;28;19920;-66
2023/10/08 07:10:53;;;;;;;;;;;;;;;14.29;92.05;102412.16;5090467;28;19916;-64
2023/10/08 07:13:21;;;;;;;;;;;;;;;14.33;92.31;102413.03;5067822;28;19919;-64
2023/10/08 07:15:50;;;;;;;;;;;;;;;14.37;91.88;102414.81;5060251;28;19928;-66
2023/10/08 07:18:22;;;;;;;;;;;;;;;14.42;92.46;102406.88;5068056;28;19916;-66
2023/10/08 07:20:53;;;;;;;;;;;;;;;14.47;92.26;102415.66;5071018;28;19920;-66
2023/10/08 07:23:19;;;;;;;;;;;;;;;14.53;92.13;102424.41;5059797;28;19963;-65
2023/10/08 07:26:01;;;;;;;;;;;;;;;14.57;91.87;102417.38;5072003;28;19954;-65
2023/10/08 07:28:26;;;;;;;;;;;;;;;14.62;91.92;102415.63;5069969;28;19993;-66
2023/10/08 07:30:52;;;;;;;;;;;;;;;14.64;91.04;102408.59;5055934;28;20245;-66
2023/10/08 07:33:18;;;;;;;;;;;;;;;14.68;91.29;102417.34;5072817;28;19982;-66
2023/10/08 07:36:11;;;;;;;;;;;;;;;14.71;91.78;102422.63;5092427;28;20069;-64
2023/10/08 07:38:37;;;;;;;;;;;;;;;14.75;91.72;102421.72;5071485;28;19985;-67
2023/10/08 07:41:02;;;;;;;;;;;;;;;14.76;91.31;102423.50;5074670;28;19912;-64
2023/10/08 07:43:32;;;;;;;;;;;;;;;14.78;91.75;102436.69;5057471;28;19920;-64
2023/10/08 07:45:58;;;;;;;;;;;;;;;14.78;91.70;102427.00;5057237;28;19924;-66
2023/10/08 07:48:29;;;;;;;;;;;;;;;14.79;89.95;102446.38;5053787;28;20334;-66
2023/10/08 07:50:55;;;;;;;;;;;;;;;14.79;91.20;102446.38;5073636;28;19970;-64
2023/10/08 07:53:20;;;;;;;;;;;;;;;14.78;90.50;102450.75;5048249;28;20339;-64
2023/10/08 07:55:47;;;;;;;;;;;;;;;14.75;90.58;102444.63;5072868;28;19920;-69
2023/10/08 07:58:14;;;;;;;;;;;;;;;14.75;91.33;102445.47;5074006;28;19916;-64
2023/10/08 08:00:40;;;;;;;;;;;;;;;14.79;91.25;102449.00;5072009;28;20011;-64
2023/10/08 08:03:06;;;;;;;;;;;;;;;14.79;91.29;102452.50;5072967;28;19920;-64
2023/10/08 08:05:31;;;;;;;;;;;;;;;14.81;91.11;102458.69;5073887;28;19916;-64
2023/10/08 08:07:59;;;;;;;;;;;;;;;14.80;91.10;102462.19;5088248;22;19967;-65
2023/10/08 08:10:25;;;;;;;;;;;;;;;14.81;91.33;102463.94;5113108;22;20276;-65
2023/10/08 08:12:56;;;;;;;;;;;;;;;14.87;92.13;102468.34;5040254;28;19924;-64
2023/10/08 08:15:22;;;;;;;;;;;;;;;14.98;92.14;102465.63;5051942;28;20503;-65
2023/10/08 08:17:48;;;;;;;;;;;;;;;15.03;91.94;102467.38;5096385;22;20039;-65
2023/10/08 08:20:17;;;;;;;;;;;;;;;15.14;92.55;102472.63;5158251;22;20076;-64
2023/10/08 08:22:49;;;;;;;;;;;;;;;15.25;91.43;102470.78;5097694;28;19930;-65
2023/10/08 08:25:33;;;;;;;;;;;;;;;15.35;90.81;102476.88;5097841;28;20339;-66
2023/10/08 08:27:59;;;;;;;;;;;;;;;15.51;91.77;102482.97;5096057;28;19937;-66
2023/10/08 08:30:26;;;;;;;;;;;;;;;15.63;89.96;102491.69;5163396;22;19920;-65
2023/10/08 08:32:51;;;;;;;;;;;;;;;15.69;90.64;102486.38;5068173;28;19936;-64
2023/10/08 08:35:17;;;;;;;;;;;;;;;15.71;89.61;102495.16;5105224;28;19932;-64
2023/10/08 08:45:50;;;;;;;;;;;;;;;16.09;89.36;102517.81;5199795;22;19924;-63
2023/10/08 08:48:17;;;;;;;;;;;;;;;16.18;88.56;102509.81;5089854;22;19974;-64
2023/10/08 08:50:43;;;;;;;;;;;;;;;16.19;89.80;102510.69;5050151;28;19938;-64
2023/10/08 08:53:09;;;;;;;;;;;;;;;16.05;90.27;102510.81;5048029;28;20043;-64
2023/10/08 08:55:35;;;;;;;;;;;;;;;15.99;90.72;102510.84;5051462;28;20390;-64
2023/10/08 08:58:01;;;;;;;;;;;;;;;16.02;91.05;102519.66;5050083;28;19928;-64
2023/10/08 09:00:28;;;;;;;;;;;;;;;15.98;91.73;102511.75;5072926;28;20248;-64
2023/10/08 09:02:55;;;;;;;;;;;;;;;15.97;92.18;102515.28;5053515;28;19928;-64
2023/10/08 09:05:34;;;;;;;;;;;;;;;15.96;92.03;102526.75;5057552;28;19934;-64
2023/10/08 09:08:06;;;;;;;;;;;;;;;15.91;93.27;102517.06;5086238;28;20189;-62
2023/10/08 09:10:36;;;;;;;;;;;;;;;15.91;93.88;102517.06;5071323;28;19966;-65
2023/10/08 09:13:03;;;;;;;;;;;;;;;15.80;95.15;102518.06;5054691;28;19926;-64
2023/10/08 09:15:30;;;;;;;;;;;;;;;15.81;94.35;102528.59;5053773;28;19984;-65
2023/10/08 09:17:56;;;;;;;;;;;;;;;15.97;94.13;102524.09;5054511;28;20334;-64
2023/10/08 09:20:22;;;;;;;;;;;;;;;15.98;93.75;102528.50;5069615;28;19956;-64
2023/10/08 09:23:13;;;;;;;;;;;;;;;15.94;94.63;102530.28;5070670;28;20332;-64
2023/10/08 09:25:40;;;;;;;;;;;;;;;15.98;94.20;102524.97;5048927;28;19924;-64
2023/10/08 09:28:08;;;;;;;;;;;;;;;15.99;94.38;102534.66;5057054;28;19916;-64
2023/10/08 09:30:37;;;;;;;;;;;;;;;15.92;94.84;102540.00;5054352;28;20314;-64
2023/10/08 09:33:10;;;;;;;;;;;;;;;15.91;94.74;102534.72;5048916;28;19920;-62
2023/10/08 09:35:36;;;;;;;;;;;;;;;15.84;95.45;102531.22;5056766;28;19939;-64
2023/10/08 09:38:08;;;;;;;;;;;;;;;15.82;95.68;102534.78;5056223;28;19912;-64
2023/10/08 09:40:34;;;;;;;;;;;;;;;15.87;94.99;102527.69;5056796;28;19928;-64
2023/10/08 09:43:00;;;;;;;;;;;;;;;15.95;94.06;102531.16;5072857;28;20386;-64
2023/10/08 09:45:25;;;;;;;;;;;;;;;15.90;95.13;102533.84;5053646;28;19923;-64
2023/10/08 09:47:55;;;;;;;;;;;;;;;15.86;94.85;102545.34;5051472;28;20025;-65
2023/10/08 09:50:28;;;;;;;;;;;;;;;15.81;94.75;102540.97;5071976;28;20334;-63
2023/10/08 09:53:31;;;;;;;;;;;;;;;15.79;94.88;102533.03;5054467;28;19913;-63
2023/10/08 09:55:56;;;;;;;;;;;;;;;15.79;95.07;102533.03;5070333;28;19916;-63
2023/10/08 09:58:26;;;;;;;;;;;;;;;15.70;96.69;102525.13;5072693;28;19920;-63
2023/10/08 10:00:53;;;;;;;;;;;;;;;15.77;95.61;102516.25;5088736;28;20327;-64
2023/10/08 10:03:20;;;;;;;;;;;;;;;15.77;95.25;102508.34;5051692;28;19999;-63
2023/10/08 10:05:48;;;;;;;;;;;;;;;15.81;94.94;102515.41;5055338;28;19939;-63
2023/10/08 10:08:13;;;;;;;;;;;;;;;15.88;94.60;102514.47;5073610;28;19920;-62
2023/10/08 10:10:39;;;;;;;;;;;;;;;15.93;95.03;102506.50;5070744;28;19925;-64
2023/10/08 10:13:07;;;;;;;;;;;;;;;15.84;95.22;102520.66;5056190;28;19917;-64
2023/10/08 10:15:34;;;;;;;;;;;;;;;15.78;95.75;102510.09;5073778;28;19916;-63
2023/10/08 10:18:10;;;;;;;;;;;;;;;15.80;95.44;102525.97;5054063;28;20342;-62
2023/10/08 10:20:39;;;;;;;;;;;;;;;15.79;95.17;102530.41;5072388;28;19923;-62
2023/10/08 10:23:25;;;;;;;;;;;;;;;15.88;95.41;102534.75;5089120;28;19916;-62
2023/10/08 10:25:54;;;;;;;;;;;;;;;15.85;95.35;102535.63;5064132;28;19950;-64
2023/10/08 10:28:23;;;;;;;;;;;;;;;15.75;95.40;102529.50;5054794;28;20392;-63
2023/10/08 10:30:50;;;;;;;;;;;;;;;15.76;95.96;102525.09;5070184;28;19916;-64
2023/10/08 10:33:15;;;;;;;;;;;;;;;15.80;95.74;102518.91;5070822;28;19971;-62
2023/10/08 10:35:43;;;;;;;;;;;;;;;15.79;95.96;102518.94;5051799;28;19920;-62
2023/10/08 10:38:09;;;;;;;;;;;;;;;15.83;95.99;102511.00;5049848;28;20004;-62
2023/10/08 10:40:40;;;;;;;;;;;;;;;15.79;95.66;102518.94;5053788;28;20015;-63
2023/10/08 10:43:09;;;;;;;;;;;;;;;15.91;95.06;102522.38;5050985;28;20360;-63
2023/10/08 10:45:43;;;;;;;;;;;;;;;15.92;95.90;102523.25;5083916;28;19923;-64
2023/10/08 10:48:34;;;;;;;;;;;;;;;15.99;95.17;102534.66;5070006;28;20049;-64
2023/10/08 10:56:29;;;;;;;;;;;;;;;16.05;94.56;102534.63;5070204;28;19970;-64
2023/10/08 10:58:58;;;;;;;;;;;;;;;16.07;94.71;102535.47;5070583;28;20386;-63
2023/10/08 11:01:29;;;;;;;;;;;;;;;16.06;94.76;102539.91;5055395;28;19924;-63
2023/10/08 11:03:57;;;;;;;;;;;;;;;16.00;94.88;102547.00;5054945;28;19916;-66
2023/10/08 11:06:23;;;;;;;;;;;;;;;15.91;95.21;102543.50;5050483;28;19924;-63
2023/10/08 11:08:53;;;;;;;;;;;;;;;15.84;95.15;102557.66;5054609;28;19921;-63
2023/10/08 11:11:18;;;;;;;;;;;;;;;15.74;95.21;102553.28;5054654;28;19955;-65
2023/10/08 11:13:50;;;;;;;;;;;;;;;15.64;95.56;102543.66;5054181;28;19963;-65
2023/10/08 11:16:15;;;;;;;;;;;;;;;15.60;95.82;102545.44;5069190;28;19962;-65
2023/10/08 11:18:47;;;;;;;;;;;;;;;15.60;95.58;102540.16;5086824;28;19924;-65
2023/10/08 11:21:15;;;;;;;;;;;;;;;15.64;95.59;102541.03;5070989;28;19912;-65
2023/10/08 11:23:42;;;;;;;;;;;;;;;15.72;95.67;102539.22;5069930;28;20014;-65
2023/10/08 11:26:07;;;;;;;;;;;;;;;15.81;95.39;102536.53;5063315;28;19924;-66
2023/10/08 11:28:34;;;;;;;;;;;;;;;15.88;94.86;102540.91;5083000;28;19916;-65
2023/10/08 11:31:09;;;;;;;;;;;;;;;16.03;94.04;102525.81;5070345;28;20347;-66
2023/10/08 11:33:38;;;;;;;;;;;;;;;15.93;94.82;102533.81;5056272;28;19916;-64
2023/10/08 11:36:18;;;;;;;;;;;;;;;15.98;94.13;102519.69;5065737;28;19959;-63
2023/10/08 11:38:47;;;;;;;;;;;;;;;16.11;93.80;102510.78;5051724;28;19916;-64
2023/10/08 11:41:20;;;;;;;;;;;;;;;16.32;92.87;102514.09;5052422;28;19916;-66
2023/10/08 11:43:58;;;;;;;;;;;;;;;16.42;92.03;102515.78;5052115;28;19916;-66
2023/10/08 11:46:27;;;;;;;;;;;;;;;16.48;92.19;102513.09;5070825;28;20371;-65
2023/10/08 11:48:58;;;;;;;;;;;;;;;16.60;91.76;102507.66;5046573;28;20348;-65
2023/10/08 11:51:23;;;;;;;;;;;;;;;16.60;91.74;102510.28;5030393;28;20368;-64
2023/10/08 11:53:49;;;;;;;;;;;;;;;16.73;90.51;102518.13;5024535;28;19976;-64
2023/10/08 11:56:15;;;;;;;;;;;;;;;16.63;90.96;102514.69;5044273;28;19960;-63
2023/10/08 11:58:44;;;;;;;;;;;;;;;16.56;91.52;102508.56;5029311;28;20376;-63
2023/10/08 12:01:15;;;;;;;;;;;;;;;16.47;91.59;102503.38;5040361;28;20388;-63
2023/10/08 12:03:40;;;;;;;;;;;;;;;16.43;91.73;102496.38;5024051;28;19925;-64
2023/10/08 12:06:06;;;;;;;;;;;;;;;16.43;91.89;102491.06;5046672;28;19913;-64
2023/10/08 12:08:39;;;;;;;;;;;;;;;16.47;92.24;102489.28;5028885;28;19947;-64
2023/10/08 12:11:09;;;;;;;;;;;;;;;16.47;92.51;102489.28;5046818;28;20328;-65
2023/10/08 12:13:36;;;;;;;;;;;;;;;16.50;91.80;102490.13;5027674;28;20011;-64
2023/10/08 12:16:12;;;;;;;;;;;;;;;16.50;91.96;102490.13;5030313;28;19921;-65
2023/10/08 12:18:42;;;;;;;;;;;;;;;16.59;91.35;102487.41;5036841;28;19965;-65
2023/10/08 12:21:10;;;;;;;;;;;;;;;16.52;92.33;102485.72;5041031;28;19992;-65
2023/10/08 12:23:38;;;;;;;;;;;;;;;16.63;92.32;102477.63;5023966;28;19960;-65
2023/10/08 12:26:07;;;;;;;;;;;;;;;16.74;92.03;102474.88;5028911;28;20008;-66
2023/10/08 12:28:34;;;;;;;;;;;;;;;16.80;91.68;102480.09;5030643;28;20324;-65
2023/10/08 12:31:00;;;;;;;;;;;;;;;16.83;91.27;102479.19;5020078;28;20383;-66
2023/10/08 12:33:26;;;;;;;;;;;;;;;16.85;91.35;102478.28;5027277;28;19984;-64
2023/10/08 12:35:55;;;;;;;;;;;;;;;16.89;91.09;102485.31;5036178;28;20332;-65
2023/10/08 12:38:27;;;;;;;;;;;;;;;16.94;90.99;102470.25;5031625;28;20016;-65
2023/10/08 12:40:53;;;;;;;;;;;;;;;17.01;91.25;102479.00;5047232;28;20295;-64
2023/10/08 12:43:22;;;;;;;;;;;;;;;17.02;91.33;102477.22;5033535;28;19921;-66
2023/10/08 12:45:53;;;;;;;;;;;;;;;16.94;91.18;102475.53;5029683;28;20028;-65
2023/10/08 12:48:27;;;;;;;;;;;;;;;16.82;91.36;102470.34;5036553;28;20439;-63
2023/10/08 12:50:53;;;;;;;;;;;;;;;16.80;91.79;102474.81;5062378;28;19917;-65
2023/10/08 12:53:23;;;;;;;;;;;;;;;16.82;91.98;102469.50;5067065;28;19948;-64
2023/10/08 12:55:53;;;;;;;;;;;;;;;16.88;91.95;102466.78;5064335;28;19920;-65
2023/10/08 12:58:18;;;;;;;;;;;;;;;16.94;91.97;102458.78;5049929;28;19921;-64
2023/10/08 13:00:49;;;;;;;;;;;;;;;16.98;91.96;102449.88;5042620;28;19953;-66
2023/10/08 13:03:15;;;;;;;;;;;;;;;17.01;91.79;102452.53;5049010;28;20017;-64
2023/10/08 13:05:47;;;;;;;;;;;;;;;17.02;91.84;102445.44;5065822;28;19971;-66
2023/10/08 13:08:13;;;;;;;;;;;;;;;16.99;91.79;102440.19;5039074;28;20279;-66
2023/10/08 13:10:43;;;;;;;;;;;;;;;17.02;91.97;102435.72;5050821;28;20030;-66
2023/10/08 13:13:10;;;;;;;;;;;;;;;17.11;91.79;102426.75;5062025;28;19923;-64
2023/10/08 13:15:36;;;;;;;;;;;;;;;17.16;91.82;102427.59;5051599;28;20494;-66
2023/10/08 13:18:04;;;;;;;;;;;;;;;17.25;91.98;102423.94;5049819;28;19921;-65
2023/10/08 13:20:34;;;;;;;;;;;;;;;17.37;91.16;102422.88;5049770;28;19920;-64
2023/10/08 13:23:04;;;;;;;;;;;;;;;17.50;91.21;102419.16;5038833;28;19996;-66
2023/10/08 13:25:33;;;;;;;;;;;;;;;17.58;90.44;102411.06;5064595;28;19917;-66
2023/10/08 13:27:58;;;;;;;;;;;;;;;17.60;90.67;102401.34;5063481;28;19921;-64
2023/10/08 13:30:23;;;;;;;;;;;;;;;17.69;90.26;102408.25;5066937;28;19998;-65
2023/10/08 13:32:49;;;;;;;;;;;;;;;17.90;89.76;102397.31;5048605;28;19964;-65
2023/10/08 13:35:14;;;;;;;;;;;;;;;18.13;89.68;102383.63;5064495;28;19921;-65
2023/10/08 13:37:40;;;;;;;;;;;;;;;18.38;87.83;102392.91;5044507;28;19928;-65
2023/10/08 13:40:06;;;;;;;;;;;;;;;18.56;87.61;102387.22;5058062;28;20330;-66
2023/10/08 13:42:31;;;;;;;;;;;;;;;18.70;87.07;102384.25;5049882;28;19917;-66
2023/10/08 13:44:59;;;;;;;;;;;;;;;18.78;86.69;102387.63;5035084;28;19990;-65
2023/10/08 13:47:29;;;;;;;;;;;;;;;18.69;86.16;102387.81;5029880;28;19925;-65
2023/10/08 13:49:55;;;;;;;;;;;;;;;18.68;86.84;102391.38;5046972;28;19940;-66
2023/10/08 13:52:20;;;;;;;;;;;;;;;18.72;86.92;102381.56;5033014;28;20289;-64
2023/10/08 13:54:51;;;;;;;;;;;;;;;18.80;85.49;102384.94;5049846;28;19924;-64
2023/10/08 13:57:20;;;;;;;;;;;;;;;18.66;86.03;102372.84;5033060;28;19930;-65